Terminal Aerodrome Forecast
Issued by NWS

Home | Current Version | Previous Version | Graphics & Text | Print | Product List | Glossary On
Versions: 1 2 3 4 5 6 7 8 9 10 11 12 13 14
000
FTUS43 KTOP 182300
TAFFOE
TAF
KFOE 182329Z 1900/1924 19010KT P6SM SKC
     FM190200 21014KT P6SM BKN100 WS011/25045KT
     FM190700 27011KT P6SM BKN100
     FM191500 32015G22KT P6SM SCT030
     FM192200 31011KT P6SM FEW030=

USA.gov is the U.S. government's official web portal to all federal, state and local government web resources and services.